Time;durP1;ratioP1;P1;durP2;ratioP2;P2;SDS_P1;SDS_P2;PMS_P1;PMS_P2;Temp;Humidity;BMP_temperature;BMP_pressure;BME280_temperature;BME280_humidity;BME280_pressure;Samples;Min_cycle;Max_cycle;Signal;HPM_P1;HPM_P2
2023/04/09 00:02:19;;;;;;;29.90;23.55;;;9.80;99.90;;;;;;5113121;28;20234;-78
2023/04/09 00:04:47;;;;;;;26.85;23.13;;;9.70;99.90;;;;;;5109528;28;20227;-77
2023/04/09 00:07:15;;;;;;;32.17;24.73;;;9.70;99.90;;;;;;5093416;28;20227;-77
2023/04/09 00:09:42;;;;;;;28.80;24.27;;;9.70;99.90;;;;;;5093201;28;20636;-77
2023/04/09 00:12:09;;;;;;;27.23;23.75;;;9.70;99.90;;;;;;5084278;28;20231;-77
2023/04/09 00:14:36;;;;;;;30.08;24.23;;;9.70;99.90;;;;;;5072462;28;20246;-76
2023/04/09 00:17:03;;;;;;;27.75;22.80;;;9.60;99.90;;;;;;5073046;28;20230;-77
2023/04/09 00:19:32;;;;;;;30.60;23.55;;;9.60;99.90;;;;;;5071781;28;20232;-76
2023/04/09 00:21:59;;;;;;;26.85;22.45;;;9.60;99.90;;;;;;5072478;28;20245;-76
2023/04/09 00:24:27;;;;;;;32.88;24.70;;;9.60;99.90;;;;;;5072206;28;20302;-77
2023/04/09 00:26:54;;;;;;;30.08;23.92;;;9.50;99.90;;;;;;5072741;28;20230;-77
2023/04/09 00:29:21;;;;;;;32.55;25.40;;;9.60;99.90;;;;;;5081552;28;20227;-77
2023/04/09 00:31:48;;;;;;;31.08;26.05;;;9.50;99.90;;;;;;5093031;28;20287;-77
2023/04/09 00:34:15;;;;;;;31.30;25.58;;;9.50;99.90;;;;;;5092647;28;20223;-78
2023/04/09 00:36:42;;;;;;;36.40;28.73;;;9.50;99.90;;;;;;5092812;28;20230;-77
2023/04/09 00:39:09;;;;;;;34.42;29.00;;;9.50;99.90;;;;;;5093491;28;20668;-78
2023/04/09 00:41:38;;;;;;;29.00;25.92;;;9.40;99.90;;;;;;5093303;28;20238;-78
2023/04/09 00:44:07;;;;;;;33.55;26.38;;;9.40;99.90;;;;;;5094110;28;20276;-77
2023/04/09 00:46:34;;;;;;;34.55;28.00;;;9.40;99.90;;;;;;5092950;28;20337;-77
2023/04/09 00:49:01;;;;;;;30.50;24.60;;;9.40;99.90;;;;;;5094247;28;20249;-77
2023/04/09 00:51:30;;;;;;;33.03;23.83;;;9.40;99.90;;;;;;5094239;28;20234;-78
2023/04/09 00:53:59;;;;;;;31.63;25.60;;;9.40;99.90;;;;;;5094579;28;20304;-76
2023/04/09 00:56:27;;;;;;;34.55;26.80;;;9.40;99.90;;;;;;5094310;28;20242;-77
2023/04/09 00:58:56;;;;;;;36.38;26.48;;;9.30;99.90;;;;;;5094793;28;20234;-75
2023/04/09 01:01:23;;;;;;;32.95;25.27;;;9.30;99.90;;;;;;5094346;28;20231;-76
2023/04/09 01:03:50;;;;;;;34.50;26.90;;;9.30;99.90;;;;;;5094628;28;20237;-75
2023/04/09 01:06:23;;;;;;;35.10;28.30;;;9.20;99.90;;;;;;5094620;28;20231;-76
2023/04/09 01:09:00;;;;;;;35.10;26.65;;;9.20;99.90;;;;;;5093472;28;21301;-76
2023/04/09 01:11:36;;;;;;;30.38;27.00;;;9.20;99.90;;;;;;5089450;28;20235;-77
2023/04/09 01:14:13;;;;;;;33.40;26.90;;;9.10;99.90;;;;;;5073786;28;20277;-77
2023/04/09 01:16:45;;;;;;;32.70;26.50;;;9.10;99.90;;;;;;5071721;28;20782;-76
2023/04/09 01:19:28;;;;;;;34.42;27.27;;;9.10;99.90;;;;;;5072135;28;20239;-78
2023/04/09 01:21:57;;;;;;;31.02;26.33;;;9.10;99.90;;;;;;5072059;28;20223;-78
2023/04/09 01:24:41;;;;;;;30.67;26.70;;;9.10;99.90;;;;;;5072206;28;20228;-77
2023/04/09 01:27:10;;;;;;;30.55;24.30;;;9.10;99.90;;;;;;5076179;28;20238;-75
2023/04/09 01:29:45;;;;;;;32.50;25.70;;;9.10;99.90;;;;;;5087986;28;20211;-76
2023/04/09 01:32:14;;;;;;;30.48;26.52;;;9.10;99.90;;;;;;5092235;28;20706;-76
2023/04/09 01:34:42;;;;;;;31.40;25.48;;;9.10;99.90;;;;;;5078816;28;20702;-76
2023/04/09 01:37:11;;;;;;;29.52;24.80;;;9.10;99.90;;;;;;5071649;28;20223;-76
2023/04/09 01:39:38;;;;;;;29.92;24.55;;;9.10;99.90;;;;;;5071899;28;20561;-76
2023/04/09 01:42:09;;;;;;;30.40;25.02;;;9.10;99.90;;;;;;5074962;28;20251;-76
2023/04/09 01:44:38;;;;;;;36.88;28.23;;;9.10;99.90;;;;;;5075323;28;20238;-77
2023/04/09 01:47:08;;;;;;;30.25;26.10;;;9.00;99.90;;;;;;5075871;28;20580;-76
2023/04/09 01:49:36;;;;;;;31.27;25.52;;;9.00;99.90;;;;;;5074893;28;20600;-76
2023/04/09 01:52:04;;;;;;;33.75;25.98;;;9.10;99.90;;;;;;5075530;28;20268;-76
2023/04/09 01:54:31;;;;;;;33.53;26.95;;;9.10;99.90;;;;;;5074622;28;20285;-76
2023/04/09 01:57:02;;;;;;;30.02;24.83;;;9.00;99.90;;;;;;5076246;28;20311;-76
2023/04/09 01:59:29;;;;;;;30.55;24.67;;;9.00;99.90;;;;;;5069523;28;20228;-77
2023/04/09 02:02:01;;;;;;;29.15;23.55;;;9.00;99.90;;;;;;5080436;28;20311;-77
2023/04/09 02:04:34;;;;;;;31.90;24.23;;;9.00;99.90;;;;;;5079674;28;20281;-77
2023/04/09 02:07:06;;;;;;;36.40;25.77;;;9.00;99.90;;;;;;5097227;28;20255;-77
2023/04/09 02:09:36;;;;;;;29.73;24.70;;;9.00;99.90;;;;;;5077840;28;20237;-78
2023/04/09 02:12:06;;;;;;;33.20;28.23;;;9.00;99.90;;;;;;5076504;28;20228;-78
2023/04/09 02:14:34;;;;;;;35.50;25.08;;;9.00;99.90;;;;;;5081258;28;20228;-78
2023/04/09 02:17:02;;;;;;;29.95;24.52;;;9.00;99.90;;;;;;5082975;28;20266;-78
2023/04/09 02:19:40;;;;;;;34.25;25.98;;;9.00;99.90;;;;;;5075719;28;20232;-77
2023/04/09 02:22:08;;;;;;;33.20;26.25;;;8.90;99.90;;;;;;5080696;28;20734;-77
2023/04/09 02:24:36;;;;;;;30.45;25.02;;;8.90;99.90;;;;;;5083637;28;20236;-78
2023/04/09 02:27:03;;;;;;;29.85;26.60;;;9.00;99.90;;;;;;5081198;28;20227;-77
2023/04/09 02:29:33;;;;;;;30.65;26.35;;;9.00;99.90;;;;;;5093191;28;20276;-78
2023/04/09 02:32:00;;;;;;;29.05;25.30;;;9.00;99.90;;;;;;5109855;28;20288;-78
2023/04/09 02:34:28;;;;;;;30.33;25.98;;;9.10;99.90;;;;;;5110118;28;20273;-78
2023/04/09 02:36:56;;;;;;;32.03;24.58;;;9.10;99.90;;;;;;5109152;28;20223;-78
2023/04/09 02:39:36;;;;;;;29.83;24.08;;;9.10;99.90;;;;;;5107369;28;20223;-78
2023/04/09 02:42:03;;;;;;;29.42;24.80;;;9.20;99.90;;;;;;5098774;28;20215;-77
2023/04/09 02:44:30;;;;;;;34.20;25.48;;;9.20;99.90;;;;;;5095462;28;20223;-78
2023/04/09 02:46:57;;;;;;;29.23;24.25;;;9.20;99.90;;;;;;5096007;28;20552;-78
2023/04/09 02:49:24;;;;;;;29.45;25.55;;;9.30;99.90;;;;;;5096382;28;20228;-78
2023/04/09 02:51:51;;;;;;;30.40;23.98;;;9.30;99.90;;;;;;5096851;28;20660;-78
2023/04/09 02:54:20;;;;;;;30.35;24.67;;;9.30;99.90;;;;;;5094383;28;20227;-78
2023/04/09 02:56:47;;;;;;;30.65;26.13;;;9.30;99.90;;;;;;5095214;28;20309;-77
2023/04/09 02:59:49;;;;;;;33.58;27.48;;;9.30;99.90;;;;;;5095172;28;20227;-77
2023/04/09 03:02:16;;;;;;;33.50;25.30;;;9.30;99.90;;;;;;5086111;28;20227;-77
2023/04/09 03:04:44;;;;;;;29.98;23.77;;;9.30;99.90;;;;;;5094832;28;20276;-78
2023/04/09 03:07:12;;;;;;;28.75;23.48;;;9.30;99.90;;;;;;5095298;28;20300;-77
2023/04/09 03:09:40;;;;;;;30.92;24.58;;;9.30;99.90;;;;;;5094525;28;20302;-78
2023/04/09 03:12:08;;;;;;;33.28;26.85;;;9.20;99.90;;;;;;5086694;28;20653;-77
2023/04/09 03:14:35;;;;;;;33.28;27.40;;;9.20;99.90;;;;;;5063798;28;20321;-77
2023/04/09 03:17:01;;;;;;;29.92;24.70;;;9.10;99.90;;;;;;5074370;28;20235;-78
2023/04/09 03:19:31;;;;;;;29.67;25.08;;;9.10;99.90;;;;;;5073207;28;20727;-77
2023/04/09 03:21:58;;;;;;;28.70;22.98;;;9.10;99.90;;;;;;5074710;28;20224;-78
2023/04/09 03:24:25;;;;;;;31.60;24.95;;;9.10;99.90;;;;;;5073596;28;20224;-77
2023/04/09 03:26:54;;;;;;;30.27;23.02;;;9.00;99.90;;;;;;5074576;28;20247;-77
2023/04/09 03:29:26;;;;;;;33.53;28.40;;;8.90;99.90;;;;;;5073688;28;20356;-78
2023/04/09 03:31:53;;;;;;;36.15;27.17;;;8.70;99.90;;;;;;5093494;28;20227;-78
2023/04/09 03:34:20;;;;;;;39.33;28.13;;;8.60;99.90;;;;;;5093583;28;20679;-77
2023/04/09 03:36:47;;;;;;;36.20;26.13;;;8.50;99.90;;;;;;5094035;28;20227;-78
2023/04/09 03:39:14;;;;;;;30.55;25.10;;;8.40;99.90;;;;;;5094123;28;20531;-78
2023/04/09 03:41:41;;;;;;;33.45;27.13;;;8.40;99.90;;;;;;5091896;28;20227;-79
2023/04/09 03:44:09;;;;;;;34.40;26.17;;;8.30;99.90;;;;;;5094319;28;20293;-78
2023/04/09 03:46:36;;;;;;;32.45;26.25;;;8.20;99.90;;;;;;5092656;28;20257;-78
2023/04/09 03:49:03;;;;;;;32.13;26.63;;;8.10;99.90;;;;;;5093672;28;20254;-78
2023/04/09 03:51:30;;;;;;;31.42;24.65;;;8.00;99.90;;;;;;5092692;28;20227;-77
2023/04/09 03:53:57;;;;;;;28.08;23.80;;;8.00;99.90;;;;;;5093840;28;20223;-77
2023/04/09 03:56:25;;;;;;;32.30;25.10;;;7.90;99.90;;;;;;5092393;28;20536;-77
2023/04/09 03:58:55;;;;;;;31.00;24.63;;;7.90;99.90;;;;;;5093417;28;20223;-78
2023/04/09 04:01:23;;;;;;;28.25;23.23;;;7.80;99.90;;;;;;5097738;28;20308;-78
2023/04/09 04:03:50;;;;;;;34.05;25.65;;;7.80;99.90;;;;;;5094028;28;20215;-77
2023/04/09 04:06:22;;;;;;;34.60;25.77;;;7.80;99.90;;;;;;5094451;28;20227;-77
2023/04/09 04:08:49;;;;;;;32.15;24.48;;;7.70;99.90;;;;;;5092362;28;20227;-77
2023/04/09 04:11:16;;;;;;;33.05;25.58;;;7.60;99.90;;;;;;5093029;28;20227;-77
2023/04/09 04:13:44;;;;;;;32.00;24.77;;;7.60;99.90;;;;;;5070769;28;20688;-78
2023/04/09 04:16:11;;;;;;;35.08;26.50;;;7.50;99.90;;;;;;5074122;28;20902;-77
2023/04/09 04:18:39;;;;;;;33.78;27.15;;;7.40;99.90;;;;;;5072545;28;20228;-77
2023/04/09 04:21:13;;;;;;;35.72;27.33;;;7.40;99.90;;;;;;5073165;28;20220;-77
2023/04/09 04:23:40;;;;;;;32.60;25.33;;;7.40;99.90;;;;;;5072718;28;20249;-77
2023/04/09 04:26:08;;;;;;;34.80;25.85;;;7.40;99.90;;;;;;5072453;28;20242;-77
2023/04/09 04:28:36;;;;;;;34.90;27.20;;;7.50;99.90;;;;;;5074244;28;20256;-77
2023/04/09 04:31:08;;;;;;;34.03;25.35;;;7.40;99.90;;;;;;5093632;28;20606;-76
2023/04/09 04:33:36;;;;;;;37.35;26.80;;;7.50;99.90;;;;;;5092554;28;20221;-77
2023/04/09 04:36:09;;;;;;;37.80;27.63;;;7.50;99.90;;;;;;5093851;28;20610;-78
2023/04/09 04:38:36;;;;;;;35.00;25.75;;;7.60;99.90;;;;;;5094272;28;20261;-78
2023/04/09 04:41:04;;;;;;;36.45;27.15;;;7.60;99.90;;;;;;5095147;28;20227;-78
2023/04/09 04:43:31;;;;;;;34.00;25.35;;;7.70;99.90;;;;;;5093541;28;20572;-78
2023/04/09 04:46:00;;;;;;;37.00;27.85;;;7.70;99.90;;;;;;5094094;28;20246;-77
2023/04/09 04:48:29;;;;;;;33.50;25.75;;;7.70;99.90;;;;;;5093090;28;20236;-77
2023/04/09 04:51:00;;;;;;;32.95;24.25;;;7.70;99.90;;;;;;5092534;28;20294;-76
2023/04/09 04:53:28;;;;;;;32.53;24.23;;;7.70;99.90;;;;;;5092875;28;20227;-77
2023/04/09 04:55:55;;;;;;;36.60;25.55;;;7.70;99.90;;;;;;5092835;28;20617;-78
2023/04/09 04:58:23;;;;;;;32.72;24.05;;;7.70;99.90;;;;;;5092528;28;20219;-77
2023/04/09 05:00:50;;;;;;;32.85;24.48;;;7.80;99.90;;;;;;5092190;28;20222;-77
2023/04/09 05:03:17;;;;;;;36.53;24.65;;;7.70;99.90;;;;;;5094381;28;20223;-76
2023/04/09 05:05:44;;;;;;;37.47;24.42;;;7.80;99.90;;;;;;5092375;28;20254;-76
2023/04/09 05:08:11;;;;;;;34.38;24.17;;;7.80;99.90;;;;;;5092992;28;20215;-76
2023/04/09 05:10:42;;;;;;;30.52;23.48;;;7.90;99.90;;;;;;5094242;28;20219;-76
2023/04/09 05:13:10;;;;;;;32.05;23.45;;;7.90;99.90;;;;;;5077008;28;20270;-77
2023/04/09 05:15:39;;;;;;;32.35;23.80;;;7.90;99.90;;;;;;5080208;28;20634;-76
2023/04/09 05:18:06;;;;;;;29.33;20.90;;;8.00;99.90;;;;;;5081766;28;20357;-76
2023/04/09 05:20:34;;;;;;;30.23;22.58;;;8.10;99.90;;;;;;5080665;28;20540;-77
2023/04/09 05:23:02;;;;;;;36.55;26.52;;;8.00;99.90;;;;;;5079017;28;20303;-78
2023/04/09 05:25:29;;;;;;;28.02;21.85;;;8.00;99.90;;;;;;5080004;28;20567;-76
2023/04/09 05:27:58;;;;;;;31.17;22.73;;;8.10;99.90;;;;;;5079603;28;20944;-76
2023/04/09 05:30:25;;;;;;;32.95;23.10;;;8.10;99.90;;;;;;5077957;28;20281;-76
2023/04/09 05:32:52;;;;;;;34.70;23.10;;;8.10;99.90;;;;;;5084870;28;20224;-77
2023/04/09 05:35:19;;;;;;;32.67;24.08;;;8.20;99.90;;;;;;5082384;28;20244;-77
2023/04/09 05:37:46;;;;;;;37.17;25.30;;;8.20;99.90;;;;;;5079982;28;20688;-77
2023/04/09 05:40:14;;;;;;;30.55;25.02;;;8.20;99.90;;;;;;5081379;28;20672;-76
2023/04/09 05:42:45;;;;;;;35.05;23.95;;;8.20;99.90;;;;;;5079665;28;20224;-78
2023/04/09 05:45:14;;;;;;;29.65;22.60;;;8.20;99.90;;;;;;5099899;28;20234;-76
2023/04/09 05:47:44;;;;;;;34.35;26.10;;;8.30;99.90;;;;;;5103825;28;20223;-77
2023/04/09 05:50:11;;;;;;;33.33;24.73;;;8.30;99.90;;;;;;5102936;28;20321;-77
2023/04/09 05:52:38;;;;;;;31.30;24.38;;;8.40;99.90;;;;;;5104106;28;20302;-78
2023/04/09 05:55:08;;;;;;;35.42;26.65;;;8.40;99.90;;;;;;5099026;28;20231;-78
2023/04/09 05:57:36;;;;;;;34.00;25.25;;;8.50;99.90;;;;;;5097487;28;20223;-77
2023/04/09 06:00:03;;;;;;;34.47;26.85;;;8.50;99.90;;;;;;5101773;28;20230;-76
2023/04/09 06:02:32;;;;;;;36.05;25.30;;;8.50;99.90;;;;;;5097144;28;20257;-77
2023/04/09 06:04:59;;;;;;;34.42;24.70;;;8.60;99.90;;;;;;5096431;28;20231;-76
2023/04/09 06:07:26;;;;;;;35.60;25.98;;;8.60;99.90;;;;;;5096315;28;20215;-77
2023/04/09 06:09:53;;;;;;;32.55;25.50;;;8.60;99.90;;;;;;5095448;28;20227;-77
2023/04/09 06:12:21;;;;;;;33.63;25.70;;;8.60;99.90;;;;;;5095943;28;20296;-77
2023/04/09 06:14:48;;;;;;;29.45;24.30;;;8.60;99.90;;;;;;5094715;28;20231;-77
2023/04/09 06:17:15;;;;;;;33.92;23.20;;;8.70;99.90;;;;;;5095421;28;20264;-77
2023/04/09 06:19:44;;;;;;;27.73;22.83;;;8.70;99.90;;;;;;5095600;28;20219;-76
2023/04/09 06:22:11;;;;;;;32.05;24.25;;;8.80;99.90;;;;;;5095306;28;20336;-77
2023/04/09 06:24:38;;;;;;;28.80;22.90;;;8.80;99.90;;;;;;5094791;28;20234;-77
2023/04/09 06:27:06;;;;;;;29.00;23.83;;;8.90;99.90;;;;;;5094879;28;20219;-76
2023/04/09 06:29:33;;;;;;;29.83;23.35;;;8.90;99.90;;;;;;5095429;28;20246;-76
2023/04/09 06:32:01;;;;;;;33.70;25.67;;;8.90;99.90;;;;;;5095134;28;20343;-78
2023/04/09 06:34:28;;;;;;;29.45;21.80;;;8.90;99.90;;;;;;5095261;28;20246;-79
2023/04/09 06:36:56;;;;;;;31.27;24.55;;;9.00;99.90;;;;;;5094485;28;20227;-77
2023/04/09 06:39:24;;;;;;;30.15;23.15;;;9.00;99.90;;;;;;5094864;28;20273;-76
2023/04/09 06:41:51;;;;;;;30.63;23.88;;;9.00;99.90;;;;;;5094985;28;20257;-77
2023/04/09 06:44:18;;;;;;;36.42;26.73;;;9.00;99.90;;;;;;5078877;28;20228;-77
2023/04/09 06:46:46;;;;;;;32.13;25.27;;;9.10;99.90;;;;;;5075606;28;20224;-76
2023/04/09 06:49:13;;;;;;;30.73;24.95;;;9.00;99.90;;;;;;5074589;28;20236;-77
2023/04/09 06:51:40;;;;;;;33.53;26.50;;;9.10;99.90;;;;;;5074952;28;20239;-77
2023/04/09 06:54:08;;;;;;;32.42;25.88;;;9.10;99.90;;;;;;5074470;28;20301;-77
2023/04/09 06:56:35;;;;;;;32.17;25.13;;;9.10;99.90;;;;;;5074346;28;20227;-77
2023/04/09 06:59:02;;;;;;;33.83;25.77;;;9.20;99.90;;;;;;5074629;28;20545;-78
2023/04/09 07:01:30;;;;;;;32.38;24.33;;;9.20;99.90;;;;;;5074659;28;20223;-77
2023/04/09 07:03:57;;;;;;;30.48;24.05;;;9.20;99.90;;;;;;5076303;28;20546;-76
2023/04/09 07:06:24;;;;;;;32.13;25.33;;;9.30;99.90;;;;;;5082169;28;20224;-76
2023/04/09 07:08:52;;;;;;;29.13;24.42;;;9.30;99.90;;;;;;5076412;28;20228;-76
2023/04/09 07:11:20;;;;;;;30.50;24.83;;;9.30;99.90;;;;;;5075537;28;20223;-77
2023/04/09 07:13:47;;;;;;;31.60;24.25;;;9.30;99.90;;;;;;5094689;28;20243;-77
2023/04/09 07:16:14;;;;;;;30.08;23.10;;;9.40;99.90;;;;;;5093698;28;20247;-76
2023/04/09 07:18:41;;;;;;;35.90;26.00;;;9.40;99.90;;;;;;5093914;28;20234;-77
2023/04/09 07:21:08;;;;;;;28.30;23.02;;;9.40;99.90;;;;;;5093999;28;20219;-77
2023/04/09 07:23:36;;;;;;;29.00;22.88;;;9.40;99.90;;;;;;5093852;28;20284;-78
2023/04/09 07:26:04;;;;;;;31.80;24.55;;;9.40;99.90;;;;;;5093685;28;20231;-78
2023/04/09 07:28:33;;;;;;;31.95;25.45;;;9.50;99.90;;;;;;5093839;28;20303;-78
2023/04/09 07:31:01;;;;;;;31.13;25.25;;;9.50;99.90;;;;;;5093615;28;20276;-78
2023/04/09 07:33:28;;;;;;;34.30;23.73;;;9.50;99.90;;;;;;5092597;28;20257;-77
2023/04/09 07:35:56;;;;;;;33.33;24.25;;;9.50;99.90;;;;;;5093303;28;20247;-77
2023/04/09 07:38:23;;;;;;;32.28;24.98;;;9.50;99.90;;;;;;5092811;28;20235;-78
2023/04/09 07:40:57;;;;;;;30.75;24.45;;;9.50;99.90;;;;;;5094300;28;20223;-77
2023/04/09 07:43:24;;;;;;;33.63;25.27;;;9.60;99.90;;;;;;5093418;28;20219;-77
2023/04/09 07:45:52;;;;;;;30.83;24.08;;;9.60;99.90;;;;;;5093162;28;20243;-77
2023/04/09 07:48:19;;;;;;;29.20;23.60;;;9.60;99.90;;;;;;5092965;28;20219;-78
2023/04/09 07:50:47;;;;;;;32.08;24.75;;;9.60;99.90;;;;;;5094278;28;20219;-76
2023/04/09 07:53:14;;;;;;;31.60;23.70;;;9.60;99.90;;;;;;5093312;28;20223;-77
2023/04/09 07:55:41;;;;;;;34.17;26.77;;;9.60;99.90;;;;;;5093478;28;20729;-78
2023/04/09 07:58:08;;;;;;;36.85;30.25;;;9.70;99.90;;;;;;5092374;28;20238;-78
2023/04/09 08:00:35;;;;;;;33.65;26.73;;;9.70;99.90;;;;;;5093379;28;20219;-78
2023/04/09 08:03:05;;;;;;;31.52;25.98;;;9.70;99.90;;;;;;5092445;28;20315;-79
2023/04/09 08:05:32;;;;;;;36.45;29.30;;;9.70;99.90;;;;;;5083247;28;20223;-78
2023/04/09 08:08:02;;;;;;;35.60;26.73;;;9.70;99.90;;;;;;5093731;28;20305;-77
2023/04/09 08:10:29;;;;;;;35.95;25.60;;;9.80;99.90;;;;;;5092874;28;20300;-77
2023/04/09 08:12:56;;;;;;;32.40;25.40;;;9.80;99.90;;;;;;5081359;28;20651;-76
2023/04/09 08:15:23;;;;;;;36.22;28.20;;;9.80;99.90;;;;;;5074028;28;20235;-77
2023/04/09 08:17:53;;;;;;;31.10;25.20;;;9.90;99.90;;;;;;5062547;28;20255;-76
2023/04/09 08:20:22;;;;;;;31.88;24.20;;;9.90;99.90;;;;;;5075860;28;20250;-77
2023/04/09 08:22:49;;;;;;;32.33;23.92;;;9.90;99.90;;;;;;5093393;28;20596;-77
2023/04/09 08:25:16;;;;;;;31.15;24.25;;;9.90;99.90;;;;;;5092483;28;20334;-78
2023/04/09 08:27:43;;;;;;;30.85;23.92;;;10.00;99.90;;;;;;5092760;28;20276;-77
2023/04/09 08:30:11;;;;;;;33.95;26.45;;;10.00;99.90;;;;;;5092740;28;20324;-78
2023/04/09 08:32:38;;;;;;;35.88;28.65;;;10.10;99.90;;;;;;5093292;28;20253;-77
2023/04/09 08:35:06;;;;;;;38.65;34.45;;;10.10;99.90;;;;;;5092274;28;20235;-77
2023/04/09 08:37:34;;;;;;;38.38;31.65;;;10.10;99.90;;;;;;5093098;28;20219;-77
2023/04/09 08:40:01;;;;;;;37.80;27.92;;;10.20;99.90;;;;;;5092999;28;20280;-78
2023/04/09 08:42:34;;;;;;;29.33;24.27;;;10.20;99.90;;;;;;5092889;28;20230;-77
2023/04/09 08:45:04;;;;;;;32.00;25.15;;;10.30;99.90;;;;;;5093493;28;20250;-78
2023/04/09 08:47:32;;;;;;;31.92;25.10;;;10.30;99.90;;;;;;5094224;28;20656;-78
2023/04/09 08:49:59;;;;;;;32.80;25.15;;;10.40;99.90;;;;;;5093765;28;20227;-77
2023/04/09 08:52:32;;;;;;;30.98;24.63;;;10.40;99.90;;;;;;5093957;28;20717;-77
2023/04/09 08:55:01;;;;;;;32.28;25.90;;;10.50;99.90;;;;;;5093454;28;20311;-77
2023/04/09 08:57:28;;;;;;;26.50;22.27;;;10.50;99.90;;;;;;5093480;28;20218;-77
2023/04/09 08:59:55;;;;;;;30.73;23.83;;;10.60;99.90;;;;;;5094119;28;20223;-77
2023/04/09 09:02:23;;;;;;;29.40;25.13;;;10.70;99.90;;;;;;5095756;28;20227;-78
2023/04/09 09:04:52;;;;;;;28.73;23.95;;;10.70;99.90;;;;;;5099546;28;20255;-77
2023/04/09 09:07:19;;;;;;;34.45;27.00;;;10.70;99.90;;;;;;5098913;28;20237;-77
2023/04/09 09:09:54;;;;;;;32.67;25.60;;;10.70;99.90;;;;;;5088836;28;20260;-76
2023/04/09 09:12:34;;;;;;;29.52;23.52;;;10.80;99.90;;;;;;5089223;28;20254;-78
2023/04/09 09:15:02;;;;;;;33.47;25.63;;;10.80;99.90;;;;;;5085152;28;20232;-77
2023/04/09 09:17:31;;;;;;;30.00;24.52;;;10.80;99.90;;;;;;5081326;28;20227;-77
2023/04/09 09:19:58;;;;;;;30.73;23.92;;;10.90;99.90;;;;;;5092092;28;20240;-77
2023/04/09 09:22:25;;;;;;;29.85;23.35;;;10.90;99.90;;;;;;5091166;28;20287;-77
2023/04/09 09:24:53;;;;;;;33.75;25.98;;;10.90;99.90;;;;;;5091630;28;20281;-78
2023/04/09 09:27:38;;;;;;;31.30;24.35;;;11.00;99.90;;;;;;5083622;28;20674;-77
2023/04/09 09:30:09;;;;;;;34.53;26.73;;;11.00;99.90;;;;;;5075763;28;20227;-78
2023/04/09 09:32:37;;;;;;;31.45;27.67;;;11.10;99.90;;;;;;5064185;28;20569;-77
2023/04/09 09:35:07;;;;;;;32.53;26.17;;;11.20;99.90;;;;;;5074097;28;20335;-77
2023/04/09 09:37:34;;;;;;;29.65;23.60;;;11.10;99.90;;;;;;5073210;28;20302;-79
2023/04/09 09:40:03;;;;;;;29.90;23.63;;;11.20;99.90;;;;;;5076349;28;20223;-77
2023/04/09 09:42:30;;;;;;;29.95;24.40;;;11.20;99.90;;;;;;5076153;28;20307;-77
2023/04/09 09:44:59;;;;;;;30.63;25.33;;;11.40;99.90;;;;;;5078313;28;20231;-77
2023/04/09 09:47:28;;;;;;;28.73;25.40;;;11.40;99.90;;;;;;5096011;28;20234;-78
2023/04/09 09:49:59;;;;;;;27.38;24.33;;;11.50;99.90;;;;;;5094749;28;20227;-78
2023/04/09 09:52:26;;;;;;;27.88;23.02;;;11.50;99.90;;;;;;5094534;28;20219;-77
2023/04/09 09:54:57;;;;;;;29.67;23.25;;;11.60;99.90;;;;;;5092496;28;20265;-77
2023/04/09 09:57:27;;;;;;;32.58;26.70;;;11.70;99.90;;;;;;5091746;28;20304;-78
2023/04/09 09:59:56;;;;;;;27.45;23.08;;;11.70;99.90;;;;;;5092870;28;20307;-78
2023/04/09 10:02:29;;;;;;;25.60;20.30;;;11.80;99.90;;;;;;5087442;28;20238;-78
2023/04/09 10:05:00;;;;;;;30.23;23.25;;;11.90;99.90;;;;;;5095996;28;20223;-77
2023/04/09 10:07:28;;;;;;;28.08;22.27;;;11.90;99.90;;;;;;5095478;28;20699;-78
2023/04/09 10:09:57;;;;;;;28.33;23.70;;;12.00;99.90;;;;;;5095968;28;20276;-78
2023/04/09 10:12:26;;;;;;;24.33;21.38;;;12.00;99.90;;;;;;5096248;28;20246;-78
2023/04/09 10:15:03;;;;;;;27.13;22.77;;;12.10;99.90;;;;;;5086424;28;20251;-78
2023/04/09 10:17:31;;;;;;;25.80;22.33;;;12.10;99.90;;;;;;5095831;28;20226;-77
2023/04/09 10:20:11;;;;;;;30.35;23.92;;;12.20;99.90;;;;;;5094956;28;20242;-77
2023/04/09 10:22:46;;;;;;;30.65;24.90;;;12.20;99.90;;;;;;5095857;28;20298;-78
2023/04/09 10:25:13;;;;;;;29.48;26.15;;;12.20;99.90;;;;;;5095801;28;20241;-77
2023/04/09 10:27:41;;;;;;;31.55;25.17;;;12.30;99.90;;;;;;5084923;28;20227;-78
2023/04/09 10:30:12;;;;;;;26.48;22.75;;;12.20;99.90;;;;;;5095253;28;20262;-77
2023/04/09 10:32:41;;;;;;;24.92;21.05;;;12.30;99.90;;;;;;5093862;28;20231;-79
2023/04/09 10:35:10;;;;;;;24.83;22.23;;;12.30;99.90;;;;;;5095972;28;20235;-78
2023/04/09 10:37:37;;;;;;;26.48;19.80;;;12.30;99.90;;;;;;5095013;28;20241;-78
2023/04/09 10:40:06;;;;;;;23.45;20.95;;;12.30;99.90;;;;;;5095099;28;20531;-78
2023/04/09 10:42:38;;;;;;;25.08;22.23;;;12.30;99.90;;;;;;5095177;28;20726;-77
2023/04/09 10:45:08;;;;;;;24.15;21.33;;;12.30;99.90;;;;;;5095011;28;20247;-77
2023/04/09 10:47:38;;;;;;;28.65;23.15;;;12.20;99.90;;;;;;5095648;28;20227;-77
2023/04/09 10:50:18;;;;;;;24.67;20.92;;;12.30;99.90;;;;;;5094846;28;20223;-76
2023/04/09 10:52:45;;;;;;;24.05;20.77;;;12.30;99.90;;;;;;5095272;28;20223;-77
2023/04/09 10:55:31;;;;;;;26.00;21.83;;;12.30;99.90;;;;;;5094473;28;20288;-77
2023/04/09 10:57:58;;;;;;;22.58;20.08;;;12.40;99.90;;;;;;5094971;28;20272;-78
2023/04/09 11:00:26;;;;;;;24.50;20.30;;;12.40;99.90;;;;;;5095221;28;20223;-77
2023/04/09 11:03:19;;;;;;;26.83;22.02;;;12.50;99.90;;;;;;5094144;28;20220;-77
2023/04/09 11:05:51;;;;;;;22.67;18.85;;;12.50;99.90;;;;;;5094595;28;20281;-78
2023/04/09 11:08:18;;;;;;;23.13;18.90;;;12.60;99.90;;;;;;5094369;28;20219;-78
2023/04/09 11:10:46;;;;;;;18.45;16.15;;;12.60;99.90;;;;;;5094533;28;20234;-78
2023/04/09 11:13:18;;;;;;;23.13;18.38;;;12.60;99.90;;;;;;5083118;28;20241;-78
2023/04/09 11:15:46;;;;;;;26.58;21.52;;;12.70;99.90;;;;;;5094244;28;20215;-78
2023/04/09 11:18:21;;;;;;;22.55;19.67;;;12.70;99.90;;;;;;5094199;28;20563;-77
2023/04/09 11:20:50;;;;;;;24.67;21.23;;;12.80;99.90;;;;;;5094469;28;20226;-78
2023/04/09 11:23:19;;;;;;;22.15;19.05;;;12.80;99.90;;;;;;5093448;28;20223;-78
2023/04/09 11:25:50;;;;;;;25.52;20.88;;;12.90;99.90;;;;;;5095240;28;20223;-78
2023/04/09 11:28:21;;;;;;;22.00;19.52;;;12.90;99.90;;;;;;5094236;28;20541;-78
2023/04/09 11:30:51;;;;;;;20.65;17.65;;;12.90;99.90;;;;;;5084437;28;20219;-78
2023/04/09 11:33:18;;;;;;;24.20;18.38;;;12.90;99.90;;;;;;5093977;28;20239;-78
2023/04/09 11:35:46;;;;;;;25.55;19.60;;;12.90;99.90;;;;;;5094348;28;20252;-77
2023/04/09 11:38:18;;;;;;;18.90;16.90;;;12.90;99.90;;;;;;5095332;28;20224;-79
2023/04/09 11:43:44;;;;;;;22.52;17.58;;;12.90;99.90;;;;;;5086834;28;20211;-77
2023/04/09 11:46:13;;;;;;;21.33;18.88;;;12.90;99.90;;;;;;5101821;28;20222;-76
2023/04/09 11:48:43;;;;;;;22.25;19.42;;;12.90;99.90;;;;;;5101656;28;20231;-78
2023/04/09 11:51:10;;;;;;;28.02;21.80;;;12.90;99.90;;;;;;5093677;28;20269;-77
2023/04/09 11:53:42;;;;;;;23.50;19.25;;;12.90;99.90;;;;;;5092844;28;20397;-76
2023/04/09 11:56:09;;;;;;;22.73;17.33;;;12.90;99.90;;;;;;5092687;28;20280;-76
2023/04/09 11:58:37;;;;;;;23.38;20.55;;;13.00;99.90;;;;;;5093690;28;20702;-76
2023/04/09 12:01:09;;;;;;;18.90;16.27;;;13.00;99.90;;;;;;5083001;28;20237;-77
2023/04/09 12:03:36;;;;;;;22.48;18.98;;;13.00;99.90;;;;;;5092993;28;20234;-77
2023/04/09 12:06:05;;;;;;;22.00;17.55;;;13.00;99.90;;;;;;5081183;28;20304;-76
2023/04/09 12:08:41;;;;;;;24.55;19.95;;;13.00;99.90;;;;;;5092989;28;20223;-77
2023/04/09 12:11:13;;;;;;;21.25;17.25;;;13.00;99.90;;;;;;5092656;28;20219;-77
2023/04/09 12:13:42;;;;;;;22.88;18.50;;;13.00;99.90;;;;;;5092729;28;20312;-77
2023/04/09 12:16:09;;;;;;;20.35;16.00;;;13.00;99.90;;;;;;5092597;28;20231;-77
2023/04/09 12:18:37;;;;;;;23.35;19.25;;;13.10;99.90;;;;;;5093971;28;20215;-77
2023/04/09 12:21:05;;;;;;;22.90;17.10;;;13.10;99.90;;;;;;5071065;28;20235;-78
2023/04/09 12:23:32;;;;;;;17.42;15.30;;;13.10;99.90;;;;;;5085638;28;20228;-78
2023/04/09 12:26:00;;;;;;;18.42;15.85;;;13.20;99.90;;;;;;5092978;28;20314;-78
2023/04/09 12:28:29;;;;;;;19.70;17.10;;;13.20;99.90;;;;;;5092997;28;20223;-78
2023/04/09 12:30:58;;;;;;;22.10;17.20;;;13.20;99.90;;;;;;5093438;28;20230;-79
2023/04/09 12:33:25;;;;;;;22.35;18.45;;;13.20;99.90;;;;;;5093186;28;20288;-78
2023/04/09 12:35:52;;;;;;;23.38;19.27;;;13.30;99.90;;;;;;5093682;28;20227;-78
2023/04/09 12:38:19;;;;;;;21.67;18.27;;;13.30;99.90;;;;;;5064073;28;20219;-78
2023/04/09 12:40:47;;;;;;;22.90;18.55;;;13.30;99.90;;;;;;5093335;28;20227;-78
2023/04/09 12:43:14;;;;;;;22.55;18.35;;;13.40;99.90;;;;;;5092425;28;20234;-78
2023/04/09 12:45:43;;;;;;;20.13;17.98;;;13.50;99.90;;;;;;5093659;28;20616;-78